This is the latest recevied weather packets stored in our database for station/object HS8AFA. If no packets are shown the sender has not sent any weather packets the latest 10 day(s).
| Time | Temp. | Humidity | Pressure | Rain* | Wind** | Luminosity | Snow |
|---|---|---|---|---|---|---|---|
| 1777675217 | 27.78° C | 100% | 1009.8 hPa | 0 mm | - | - | - |
| 1777674020 | 27.78° C | 100% | 1009.7 hPa | 0 mm | - | - | - |
| 1777670418 | 27.78° C | 100% | 1009.1 hPa | 0 mm | - | - | - |
| 1777666220 | 28.33° C | 100% | 1009.1 hPa | 0 mm | - | - | - |
| 1777659019 | 28.89° C | 100% | 1010.4 hPa | 0 mm | - | - | - |
| 1777657820 | 29.44° C | 100% | 1010.7 hPa | 0 mm | - | - | - |
| 1777648818 | 31.11° C | 100% | 1011.1 hPa | 0 mm | - | - | - |
| 1777647021 | 31.67° C | 100% | 1010.8 hPa | 0 mm | - | - | - |
| 1777640420 | 33.33° C | 81% | 1009 hPa | 0 mm | - | - | - |
| 1777637419 | 34.44° C | 57% | 1008 hPa | 0 mm | - | - | - |
| 1777630837 | 37.22° C | 41% | 1006.7 hPa | 0 mm | - | - | - |
| 1777629619 | 37.78° C | 39% | 1006.7 hPa | 0 mm | - | - | - |
| 1777629021 | 37.78° C | 38% | 1006.8 hPa | 0 mm | - | - | - |
| 1777627817 | 38.33° C | 46% | 1007 hPa | 0 mm | - | - | - |
| 1777614619 | 35.56° C | 83% | 1010.7 hPa | 0 mm | - | - | - |
| 1777612838 | 35° C | 67% | 1011.1 hPa | 0 mm | - | - | - |
| 1777611618 | 35.56° C | 54% | 1011.2 hPa | 0 mm | - | - | - |
| 1777609216 | 35.56° C | 55% | 1011.2 hPa | 0 mm | - | - | - |
| 1777606819 | 34.44° C | 63% | 1011.9 hPa | 0 mm | - | - | - |
| 1777606220 | 33.89° C | 68% | 1011.9 hPa | 0 mm | - | - | - |
| 1777605636 | 33.89° C | 72% | 1012.1 hPa | 0 mm | - | - | - |
| 1777600218 | 31.11° C | 100% | 1011.7 hPa | 0 mm | - | - | - |
| 1777599020 | 30.56° C | 100% | 1011.7 hPa | 0 mm | - | - | - |
| 1777597217 | 29.44° C | 100% | 1011.3 hPa | 0 mm | - | - | - |
| 1777593018 | 27.22° C | 100% | 1010.1 hPa | 0 mm | - | - | - |
* Rain latest hour (hover to see other rain measurements)
** Current wind speed in m/s (hover to see current wind gust speed)